sensor_id;sensor_type;location;lat;lon;timestamp;temperature;humidity
11748;DHT22;5931;48.832;9.072;2023-12-04T00:01:21;-6.10;99.90
11748;DHT22;5931;48.832;9.072;2023-12-04T00:03:47;-6.10;99.90
11748;DHT22;5931;48.832;9.072;2023-12-04T00:06:13;-6.20;99.90
11748;DHT22;5931;48.832;9.072;2023-12-04T00:08:39;-6.20;99.90
11748;DHT22;5931;48.832;9.072;2023-12-04T00:11:06;-6.30;99.90
11748;DHT22;5931;48.832;9.072;2023-12-04T00:13:31;-6.40;99.90
11748;DHT22;5931;48.832;9.072;2023-12-04T00:15:57;-6.50;99.90
11748;DHT22;5931;48.832;9.072;2023-12-04T00:18:23;-6.40;99.90
11748;DHT22;5931;48.832;9.072;2023-12-04T00:20:49;-6.40;99.90
11748;DHT22;5931;48.832;9.072;2023-12-04T00:23:15;-6.50;99.90
11748;DHT22;5931;48.832;9.072;2023-12-04T00:25:40;-6.50;99.90
11748;DHT22;5931;48.832;9.072;2023-12-04T00:28:06;-6.50;99.90
11748;DHT22;5931;48.832;9.072;2023-12-04T00:30:32;-6.40;99.90
11748;DHT22;5931;48.832;9.072;2023-12-04T00:32:58;-6.40;99.90
11748;DHT22;5931;48.832;9.072;2023-12-04T00:35:23;-6.40;99.90
11748;DHT22;5931;48.832;9.072;2023-12-04T00:37:49;-6.40;99.90
11748;DHT22;5931;48.832;9.072;2023-12-04T00:40:15;-6.50;99.90
11748;DHT22;5931;48.832;9.072;2023-12-04T00:42:41;-6.50;99.90
11748;DHT22;5931;48.832;9.072;2023-12-04T00:45:07;-6.60;99.90
11748;DHT22;5931;48.832;9.072;2023-12-04T00:47:33;-6.50;99.90
11748;DHT22;5931;48.832;9.072;2023-12-04T00:49:59;-6.50;99.90
11748;DHT22;5931;48.832;9.072;2023-12-04T00:52:24;-6.50;99.90
11748;DHT22;5931;48.832;9.072;2023-12-04T00:54:50;-6.50;99.90
11748;DHT22;5931;48.832;9.072;2023-12-04T00:57:16;-6.60;99.90
11748;DHT22;5931;48.832;9.072;2023-12-04T00:59:42;-6.60;99.90
11748;DHT22;5931;48.832;9.072;2023-12-04T01:02:08;-6.50;99.90
11748;DHT22;5931;48.832;9.072;2023-12-04T01:04:34;-6.50;99.90
11748;DHT22;5931;48.832;9.072;2023-12-04T01:06:59;-6.50;99.90
11748;DHT22;5931;48.832;9.072;2023-12-04T01:09:25;-6.50;99.90
11748;DHT22;5931;48.832;9.072;2023-12-04T01:11:55;-6.40;99.90
11748;DHT22;5931;48.832;9.072;2023-12-04T01:14:21;-6.40;99.90
11748;DHT22;5931;48.832;9.072;2023-12-04T01:16:47;-6.50;99.90
11748;DHT22;5931;48.832;9.072;2023-12-04T01:19:13;-6.40;99.90
11748;DHT22;5931;48.832;9.072;2023-12-04T01:21:39;-6.50;99.90
11748;DHT22;5931;48.832;9.072;2023-12-04T01:24:05;-6.60;99.90
11748;DHT22;5931;48.832;9.072;2023-12-04T01:26:31;-6.60;99.90
11748;DHT22;5931;48.832;9.072;2023-12-04T01:28:56;-6.60;99.90
11748;DHT22;5931;48.832;9.072;2023-12-04T01:31:22;-6.60;99.90
11748;DHT22;5931;48.832;9.072;2023-12-04T01:33:48;-6.60;99.90
11748;DHT22;5931;48.832;9.072;2023-12-04T01:36:14;-6.70;99.90
11748;DHT22;5931;48.832;9.072;2023-12-04T01:38:39;-6.70;99.90
11748;DHT22;5931;48.832;9.072;2023-12-04T01:41:06;-6.70;99.90
11748;DHT22;5931;48.832;9.072;2023-12-04T01:43:31;-6.60;99.90
11748;DHT22;5931;48.832;9.072;2023-12-04T01:45:59;-6.60;99.90
11748;DHT22;5931;48.832;9.072;2023-12-04T01:48:27;-6.60;99.90
11748;DHT22;5931;48.832;9.072;2023-12-04T01:50:53;-6.60;99.90
11748;DHT22;5931;48.832;9.072;2023-12-04T01:53:19;-6.60;99.90
11748;DHT22;5931;48.832;9.072;2023-12-04T01:55:46;-6.60;99.90
11748;DHT22;5931;48.832;9.072;2023-12-04T01:58:12;-6.60;99.90
11748;DHT22;5931;48.832;9.072;2023-12-04T02:00:38;-6.60;99.90
11748;DHT22;5931;48.832;9.072;2023-12-04T02:03:04;-6.60;99.90
11748;DHT22;5931;48.832;9.072;2023-12-04T02:05:31;-6.70;99.90
11748;DHT22;5931;48.832;9.072;2023-12-04T02:07:57;-6.80;99.90
11748;DHT22;5931;48.832;9.072;2023-12-04T02:10:23;-6.80;99.90
11748;DHT22;5931;48.832;9.072;2023-12-04T02:12:50;-6.70;99.90
11748;DHT22;5931;48.832;9.072;2023-12-04T02:15:16;-6.60;99.90
11748;DHT22;5931;48.832;9.072;2023-12-04T02:17:43;-6.60;99.90
11748;DHT22;5931;48.832;9.072;2023-12-04T02:20:12;-6.50;99.90
11748;DHT22;5931;48.832;9.072;2023-12-04T02:22:38;-6.50;99.90
11748;DHT22;5931;48.832;9.072;2023-12-04T02:25:05;-6.60;99.90
11748;DHT22;5931;48.832;9.072;2023-12-04T02:27:40;-6.70;99.90
11748;DHT22;5931;48.832;9.072;2023-12-04T02:30:11;-6.70;99.90
11748;DHT22;5931;48.832;9.072;2023-12-04T02:32:43;-6.80;99.90
11748;DHT22;5931;48.832;9.072;2023-12-04T02:35:10;-6.80;99.90
11748;DHT22;5931;48.832;9.072;2023-12-04T02:37:37;-6.90;99.90
11748;DHT22;5931;48.832;9.072;2023-12-04T02:40:04;-6.90;99.90
11748;DHT22;5931;48.832;9.072;2023-12-04T02:42:32;-6.90;99.90
11748;DHT22;5931;48.832;9.072;2023-12-04T02:44:58;-7.00;99.90
11748;DHT22;5931;48.832;9.072;2023-12-04T02:47:24;-7.00;99.90
11748;DHT22;5931;48.832;9.072;2023-12-04T02:49:50;-7.00;99.90
11748;DHT22;5931;48.832;9.072;2023-12-04T02:52:15;-7.00;99.90
11748;DHT22;5931;48.832;9.072;2023-12-04T02:54:41;-7.10;99.90
11748;DHT22;5931;48.832;9.072;2023-12-04T02:57:07;-7.10;99.90
11748;DHT22;5931;48.832;9.072;2023-12-04T02:59:33;-7.10;99.90
11748;DHT22;5931;48.832;9.072;2023-12-04T03:01:59;-7.10;99.90
11748;DHT22;5931;48.832;9.072;2023-12-04T03:04:26;-7.00;99.90
11748;DHT22;5931;48.832;9.072;2023-12-04T03:06:52;-6.90;99.90
11748;DHT22;5931;48.832;9.072;2023-12-04T03:09:17;-7.00;99.90
11748;DHT22;5931;48.832;9.072;2023-12-04T03:11:43;-7.00;99.90
11748;DHT22;5931;48.832;9.072;2023-12-04T03:14:09;-6.90;99.90
11748;DHT22;5931;48.832;9.072;2023-12-04T03:16:35;-6.90;99.90
11748;DHT22;5931;48.832;9.072;2023-12-04T03:19:01;-6.90;99.90
11748;DHT22;5931;48.832;9.072;2023-12-04T03:21:26;-7.00;99.90
11748;DHT22;5931;48.832;9.072;2023-12-04T03:23:54;-7.00;99.90
11748;DHT22;5931;48.832;9.072;2023-12-04T03:26:20;-7.00;99.90
11748;DHT22;5931;48.832;9.072;2023-12-04T03:28:45;-7.00;99.90
11748;DHT22;5931;48.832;9.072;2023-12-04T03:31:11;-7.00;99.90
11748;DHT22;5931;48.832;9.072;2023-12-04T03:33:37;-7.00;99.90
11748;DHT22;5931;48.832;9.072;2023-12-04T03:36:03;-6.90;99.90
11748;DHT22;5931;48.832;9.072;2023-12-04T03:38:29;-6.90;99.90
11748;DHT22;5931;48.832;9.072;2023-12-04T03:40:55;-6.80;99.90
11748;DHT22;5931;48.832;9.072;2023-12-04T03:43:21;-6.70;99.90
11748;DHT22;5931;48.832;9.072;2023-12-04T03:45:46;-6.60;99.90
11748;DHT22;5931;48.832;9.072;2023-12-04T03:48:12;-6.50;99.90
11748;DHT22;5931;48.832;9.072;2023-12-04T03:50:38;-6.40;99.90
11748;DHT22;5931;48.832;9.072;2023-12-04T03:53:04;-6.30;99.90
11748;DHT22;5931;48.832;9.072;2023-12-04T03:55:29;-6.20;99.90
11748;DHT22;5931;48.832;9.072;2023-12-04T03:57:56;-6.20;99.90
11748;DHT22;5931;48.832;9.072;2023-12-04T04:00:22;-6.20;99.90
11748;DHT22;5931;48.832;9.072;2023-12-04T04:02:48;-6.30;99.90
11748;DHT22;5931;48.832;9.072;2023-12-04T04:05:14;-6.40;99.90
11748;DHT22;5931;48.832;9.072;2023-12-04T04:07:40;-6.50;99.90
11748;DHT22;5931;48.832;9.072;2023-12-04T04:10:07;-6.50;99.90
11748;DHT22;5931;48.832;9.072;2023-12-04T04:12:33;-6.50;99.90
11748;DHT22;5931;48.832;9.072;2023-12-04T04:14:59;-6.50;99.90
11748;DHT22;5931;48.832;9.072;2023-12-04T04:17:25;-6.50;99.90
11748;DHT22;5931;48.832;9.072;2023-12-04T04:19:53;-6.50;99.90
11748;DHT22;5931;48.832;9.072;2023-12-04T04:22:20;-6.30;99.90
11748;DHT22;5931;48.832;9.072;2023-12-04T04:24:47;-6.20;99.90
11748;DHT22;5931;48.832;9.072;2023-12-04T04:27:13;-6.20;99.90
11748;DHT22;5931;48.832;9.072;2023-12-04T04:29:38;-6.10;99.90
11748;DHT22;5931;48.832;9.072;2023-12-04T04:32:05;-6.00;99.90
11748;DHT22;5931;48.832;9.072;2023-12-04T04:34:31;-6.00;99.90
11748;DHT22;5931;48.832;9.072;2023-12-04T04:36:57;-6.00;99.90
11748;DHT22;5931;48.832;9.072;2023-12-04T04:39:23;-6.00;99.90
11748;DHT22;5931;48.832;9.072;2023-12-04T04:41:49;-6.00;99.90
11748;DHT22;5931;48.832;9.072;2023-12-04T04:44:14;-6.00;99.90
11748;DHT22;5931;48.832;9.072;2023-12-04T04:46:40;-6.00;99.90
11748;DHT22;5931;48.832;9.072;2023-12-04T04:49:06;-6.00;99.90
11748;DHT22;5931;48.832;9.072;2023-12-04T04:51:33;-5.90;99.90
11748;DHT22;5931;48.832;9.072;2023-12-04T04:54:02;-5.90;99.90
11748;DHT22;5931;48.832;9.072;2023-12-04T04:56:29;-5.90;99.90
11748;DHT22;5931;48.832;9.072;2023-12-04T04:58:55;-5.90;99.90
11748;DHT22;5931;48.832;9.072;2023-12-04T05:01:21;-5.80;99.90
11748;DHT22;5931;48.832;9.072;2023-12-04T05:03:47;-5.80;99.90
11748;DHT22;5931;48.832;9.072;2023-12-04T05:06:13;-5.80;99.90
11748;DHT22;5931;48.832;9.072;2023-12-04T05:08:39;-5.80;99.90
11748;DHT22;5931;48.832;9.072;2023-12-04T05:11:05;-5.80;99.90
11748;DHT22;5931;48.832;9.072;2023-12-04T05:13:31;-5.70;99.90
11748;DHT22;5931;48.832;9.072;2023-12-04T05:15:57;-5.50;99.90
11748;DHT22;5931;48.832;9.072;2023-12-04T05:18:23;-5.40;99.90
11748;DHT22;5931;48.832;9.072;2023-12-04T05:20:48;-5.30;99.90
11748;DHT22;5931;48.832;9.072;2023-12-04T05:23:14;-5.20;99.90
11748;DHT22;5931;48.832;9.072;2023-12-04T05:25:40;-5.20;99.90
11748;DHT22;5931;48.832;9.072;2023-12-04T05:28:06;-5.10;99.90
11748;DHT22;5931;48.832;9.072;2023-12-04T05:30:31;-5.00;99.90
11748;DHT22;5931;48.832;9.072;2023-12-04T05:32:57;-5.00;99.90
11748;DHT22;5931;48.832;9.072;2023-12-04T05:35:23;-5.00;99.90
11748;DHT22;5931;48.832;9.072;2023-12-04T05:37:49;-5.00;99.90
11748;DHT22;5931;48.832;9.072;2023-12-04T05:40:15;-5.10;99.90
11748;DHT22;5931;48.832;9.072;2023-12-04T05:42:41;-5.00;99.90
11748;DHT22;5931;48.832;9.072;2023-12-04T05:45:07;-5.10;99.90
11748;DHT22;5931;48.832;9.072;2023-12-04T05:47:34;-5.10;99.90
11748;DHT22;5931;48.832;9.072;2023-12-04T05:50:00;-5.10;99.90
11748;DHT22;5931;48.832;9.072;2023-12-04T05:52:26;-5.20;99.90
11748;DHT22;5931;48.832;9.072;2023-12-04T05:54:52;-5.20;99.90
11748;DHT22;5931;48.832;9.072;2023-12-04T05:57:17;-5.20;99.90
11748;DHT22;5931;48.832;9.072;2023-12-04T05:59:43;-5.20;99.90
11748;DHT22;5931;48.832;9.072;2023-12-04T06:02:09;-5.20;99.90
11748;DHT22;5931;48.832;9.072;2023-12-04T06:04:35;-5.20;99.90
11748;DHT22;5931;48.832;9.072;2023-12-04T06:07:01;-5.20;99.90
11748;DHT22;5931;48.832;9.072;2023-12-04T06:09:26;-5.20;99.90
11748;DHT22;5931;48.832;9.072;2023-12-04T06:11:52;-5.20;99.90
11748;DHT22;5931;48.832;9.072;2023-12-04T06:14:18;-5.20;99.90
11748;DHT22;5931;48.832;9.072;2023-12-04T06:16:44;-5.10;99.90
11748;DHT22;5931;48.832;9.072;2023-12-04T06:19:09;-5.10;99.90
11748;DHT22;5931;48.832;9.072;2023-12-04T06:21:35;-5.00;99.90
11748;DHT22;5931;48.832;9.072;2023-12-04T06:24:01;-5.00;99.90
11748;DHT22;5931;48.832;9.072;2023-12-04T06:26:27;-5.00;99.90
11748;DHT22;5931;48.832;9.072;2023-12-04T06:28:55;-4.90;99.90
11748;DHT22;5931;48.832;9.072;2023-12-04T06:31:21;-4.90;99.90
11748;DHT22;5931;48.832;9.072;2023-12-04T06:33:47;-4.80;99.90
11748;DHT22;5931;48.832;9.072;2023-12-04T06:36:13;-4.90;99.90
11748;DHT22;5931;48.832;9.072;2023-12-04T06:38:40;-4.90;99.90
11748;DHT22;5931;48.832;9.072;2023-12-04T06:41:07;-4.90;99.90
11748;DHT22;5931;48.832;9.072;2023-12-04T06:43:34;-4.80;99.90
11748;DHT22;5931;48.832;9.072;2023-12-04T06:46:00;-4.80;99.90
11748;DHT22;5931;48.832;9.072;2023-12-04T06:48:26;-4.80;99.90
11748;DHT22;5931;48.832;9.072;2023-12-04T06:50:52;-4.70;99.90
11748;DHT22;5931;48.832;9.072;2023-12-04T06:53:17;-4.80;99.90
11748;DHT22;5931;48.832;9.072;2023-12-04T06:55:43;-4.70;99.90
11748;DHT22;5931;48.832;9.072;2023-12-04T06:58:09;-4.70;99.90
11748;DHT22;5931;48.832;9.072;2023-12-04T07:00:35;-4.70;99.90
11748;DHT22;5931;48.832;9.072;2023-12-04T07:03:01;-4.70;99.90
11748;DHT22;5931;48.832;9.072;2023-12-04T07:05:27;-4.60;99.90
11748;DHT22;5931;48.832;9.072;2023-12-04T07:07:52;-4.50;99.90
11748;DHT22;5931;48.832;9.072;2023-12-04T07:10:18;-4.40;99.90
11748;DHT22;5931;48.832;9.072;2023-12-04T07:12:44;-4.30;99.90
11748;DHT22;5931;48.832;9.072;2023-12-04T07:15:11;-4.20;99.90
11748;DHT22;5931;48.832;9.072;2023-12-04T07:17:37;-4.10;99.90
11748;DHT22;5931;48.832;9.072;2023-12-04T07:20:04;-4.10;99.90
11748;DHT22;5931;48.832;9.072;2023-12-04T07:22:33;-4.10;99.90
11748;DHT22;5931;48.832;9.072;2023-12-04T07:24:59;-4.10;99.90
11748;DHT22;5931;48.832;9.072;2023-12-04T07:27:25;-4.10;99.90
11748;DHT22;5931;48.832;9.072;2023-12-04T07:29:51;-4.00;99.90
11748;DHT22;5931;48.832;9.072;2023-12-04T07:32:17;-3.90;99.90
11748;DHT22;5931;48.832;9.072;2023-12-04T07:34:45;-3.80;99.90
11748;DHT22;5931;48.832;9.072;2023-12-04T07:37:11;-3.80;99.90
11748;DHT22;5931;48.832;9.072;2023-12-04T07:39:37;-3.70;99.90
11748;DHT22;5931;48.832;9.072;2023-12-04T07:42:03;-3.60;99.90
11748;DHT22;5931;48.832;9.072;2023-12-04T07:44:29;-3.60;99.90
11748;DHT22;5931;48.832;9.072;2023-12-04T07:46:55;-3.50;99.90
11748;DHT22;5931;48.832;9.072;2023-12-04T07:49:21;-3.40;99.90
11748;DHT22;5931;48.832;9.072;2023-12-04T07:51:47;-3.30;99.90
11748;DHT22;5931;48.832;9.072;2023-12-04T07:54:13;-3.20;99.90
11748;DHT22;5931;48.832;9.072;2023-12-04T07:56:38;-3.20;99.90
11748;DHT22;5931;48.832;9.072;2023-12-04T07:59:04;-3.00;99.90
11748;DHT22;5931;48.832;9.072;2023-12-04T08:01:30;-3.00;99.90
11748;DHT22;5931;48.832;9.072;2023-12-04T08:03:56;-2.90;99.90
11748;DHT22;5931;48.832;9.072;2023-12-04T08:06:21;-2.80;99.90
11748;DHT22;5931;48.832;9.072;2023-12-04T08:08:47;-2.70;99.90
11748;DHT22;5931;48.832;9.072;2023-12-04T08:11:13;-2.60;99.90
11748;DHT22;5931;48.832;9.072;2023-12-04T08:13:39;-2.50;99.90
11748;DHT22;5931;48.832;9.072;2023-12-04T08:16:13;-2.50;99.90
11748;DHT22;5931;48.832;9.072;2023-12-04T08:18:39;-2.50;99.90
11748;DHT22;5931;48.832;9.072;2023-12-04T08:21:05;-2.40;99.90
11748;DHT22;5931;48.832;9.072;2023-12-04T08:23:31;-2.40;99.90
11748;DHT22;5931;48.832;9.072;2023-12-04T08:25:57;-2.40;99.90
11748;DHT22;5931;48.832;9.072;2023-12-04T08:28:23;-2.30;99.90
11748;DHT22;5931;48.832;9.072;2023-12-04T08:30:49;-2.30;99.90
11748;DHT22;5931;48.832;9.072;2023-12-04T08:33:14;-2.10;99.90
11748;DHT22;5931;48.832;9.072;2023-12-04T08:35:41;-2.10;99.90
11748;DHT22;5931;48.832;9.072;2023-12-04T08:38:07;-2.10;99.90
11748;DHT22;5931;48.832;9.072;2023-12-04T08:40:32;-2.00;99.90
11748;DHT22;5931;48.832;9.072;2023-12-04T08:42:58;-1.90;99.90
11748;DHT22;5931;48.832;9.072;2023-12-04T08:45:24;-1.90;99.90
11748;DHT22;5931;48.832;9.072;2023-12-04T08:47:50;-1.80;99.90
11748;DHT22;5931;48.832;9.072;2023-12-04T08:50:16;-1.70;99.90
11748;DHT22;5931;48.832;9.072;2023-12-04T08:52:42;-1.50;99.90
11748;DHT22;5931;48.832;9.072;2023-12-04T08:55:09;-1.40;99.90
11748;DHT22;5931;48.832;9.072;2023-12-04T08:57:35;-1.30;99.90
11748;DHT22;5931;48.832;9.072;2023-12-04T09:00:00;-1.10;99.90
11748;DHT22;5931;48.832;9.072;2023-12-04T09:02:26;-0.90;99.90
11748;DHT22;5931;48.832;9.072;2023-12-04T09:04:52;-0.80;99.90
11748;DHT22;5931;48.832;9.072;2023-12-04T09:07:18;-0.70;99.90
11748;DHT22;5931;48.832;9.072;2023-12-04T09:09:44;-0.60;99.90
11748;DHT22;5931;48.832;9.072;2023-12-04T09:12:10;-0.50;99.90
11748;DHT22;5931;48.832;9.072;2023-12-04T09:14:36;-0.40;99.90
11748;DHT22;5931;48.832;9.072;2023-12-04T09:17:02;-0.40;99.90
11748;DHT22;5931;48.832;9.072;2023-12-04T09:19:29;-0.40;99.90
11748;DHT22;5931;48.832;9.072;2023-12-04T09:21:55;-0.40;99.90
11748;DHT22;5931;48.832;9.072;2023-12-04T09:24:22;-0.50;99.90
11748;DHT22;5931;48.832;9.072;2023-12-04T09:26:49;-0.50;99.90
11748;DHT22;5931;48.832;9.072;2023-12-04T09:29:15;-0.40;99.90
11748;DHT22;5931;48.832;9.072;2023-12-04T09:31:42;-0.40;99.90
11748;DHT22;5931;48.832;9.072;2023-12-04T09:34:08;-0.20;99.90
11748;DHT22;5931;48.832;9.072;2023-12-04T09:36:34;-0.10;99.90
11748;DHT22;5931;48.832;9.072;2023-12-04T09:39:00;-0.10;99.90
11748;DHT22;5931;48.832;9.072;2023-12-04T09:41:26;0.00;99.90
11748;DHT22;5931;48.832;9.072;2023-12-04T09:43:53;0.10;99.90
11748;DHT22;5931;48.832;9.072;2023-12-04T09:46:19;0.20;99.90
11748;DHT22;5931;48.832;9.072;2023-12-04T09:48:45;0.20;99.90
11748;DHT22;5931;48.832;9.072;2023-12-04T09:51:12;0.30;99.90
11748;DHT22;5931;48.832;9.072;2023-12-04T09:53:40;0.30;99.90
11748;DHT22;5931;48.832;9.072;2023-12-04T09:56:07;0.30;99.90
11748;DHT22;5931;48.832;9.072;2023-12-04T09:58:37;0.40;99.90
11748;DHT22;5931;48.832;9.072;2023-12-04T10:01:06;0.50;99.90
11748;DHT22;5931;48.832;9.072;2023-12-04T10:03:34;0.50;99.90
11748;DHT22;5931;48.832;9.072;2023-12-04T10:06:00;0.60;99.90
11748;DHT22;5931;48.832;9.072;2023-12-04T10:08:26;0.60;99.90
11748;DHT22;5931;48.832;9.072;2023-12-04T10:10:51;0.60;99.90
11748;DHT22;5931;48.832;9.072;2023-12-04T10:13:17;0.60;99.90
11748;DHT22;5931;48.832;9.072;2023-12-04T10:15:50;0.70;99.90
11748;DHT22;5931;48.832;9.072;2023-12-04T10:18:27;0.70;99.90
11748;DHT22;5931;48.832;9.072;2023-12-04T10:20:56;0.90;99.90
11748;DHT22;5931;48.832;9.072;2023-12-04T10:23:23;1.10;99.90
11748;DHT22;5931;48.832;9.072;2023-12-04T10:25:49;1.30;99.90
11748;DHT22;5931;48.832;9.072;2023-12-04T10:28:19;1.30;99.90
11748;DHT22;5931;48.832;9.072;2023-12-04T10:30:45;1.40;99.90
11748;DHT22;5931;48.832;9.072;2023-12-04T10:33:12;1.50;99.90
11748;DHT22;5931;48.832;9.072;2023-12-04T10:35:39;1.50;99.90
11748;DHT22;5931;48.832;9.072;2023-12-04T10:38:06;1.40;99.90
11748;DHT22;5931;48.832;9.072;2023-12-04T10:40:33;1.20;99.90
11748;DHT22;5931;48.832;9.072;2023-12-04T10:45:42;1.60;99.90
11748;DHT22;5931;48.832;9.072;2023-12-04T10:48:09;1.60;99.90
11748;DHT22;5931;48.832;9.072;2023-12-04T10:50:37;1.70;99.90
11748;DHT22;5931;48.832;9.072;2023-12-04T10:53:07;1.80;99.90
11748;DHT22;5931;48.832;9.072;2023-12-04T10:55:34;2.00;99.90
11748;DHT22;5931;48.832;9.072;2023-12-04T10:58:20;2.20;99.90
11748;DHT22;5931;48.832;9.072;2023-12-04T11:00:49;2.30;99.90
11748;DHT22;5931;48.832;9.072;2023-12-04T11:03:21;2.50;99.90
11748;DHT22;5931;48.832;9.072;2023-12-04T11:05:56;2.60;99.90
11748;DHT22;5931;48.832;9.072;2023-12-04T11:08:26;2.90;99.90
11748;DHT22;5931;48.832;9.072;2023-12-04T11:10:58;3.00;99.90
11748;DHT22;5931;48.832;9.072;2023-12-04T11:13:30;2.90;99.90
11748;DHT22;5931;48.832;9.072;2023-12-04T11:18:55;2.50;99.90
11748;DHT22;5931;48.832;9.072;2023-12-04T11:21:22;2.30;99.90
11748;DHT22;5931;48.832;9.072;2023-12-04T11:23:49;2.30;99.90
11748;DHT22;5931;48.832;9.072;2023-12-04T11:26:16;2.20;99.90
11748;DHT22;5931;48.832;9.072;2023-12-04T11:28:43;2.10;99.90
11748;DHT22;5931;48.832;9.072;2023-12-04T11:31:10;1.90;99.90
11748;DHT22;5931;48.832;9.072;2023-12-04T11:33:37;1.90;99.90
11748;DHT22;5931;48.832;9.072;2023-12-04T11:36:12;1.90;99.90
11748;DHT22;5931;48.832;9.072;2023-12-04T11:38:43;2.00;99.90
11748;DHT22;5931;48.832;9.072;2023-12-04T11:41:23;2.00;99.90
11748;DHT22;5931;48.832;9.072;2023-12-04T11:43:49;2.20;99.90
11748;DHT22;5931;48.832;9.072;2023-12-04T11:46:23;2.20;99.90
11748;DHT22;5931;48.832;9.072;2023-12-04T11:48:50;2.20;99.90
11748;DHT22;5931;48.832;9.072;2023-12-04T11:54:17;2.30;99.90
11748;DHT22;5931;48.832;9.072;2023-12-04T11:57:38;2.30;99.90
11748;DHT22;5931;48.832;9.072;2023-12-04T11:59:46;2.30;99.90
11748;DHT22;5931;48.832;9.072;2023-12-04T12:02:13;2.40;99.90
11748;DHT22;5931;48.832;9.072;2023-12-04T12:04:40;2.40;99.90
11748;DHT22;5931;48.832;9.072;2023-12-04T12:07:06;2.20;99.90
11748;DHT22;5931;48.832;9.072;2023-12-04T12:09:33;2.10;99.90
11748;DHT22;5931;48.832;9.072;2023-12-04T12:12:03;2.00;99.90
11748;DHT22;5931;48.832;9.072;2023-12-04T12:14:30;1.90;99.90
11748;DHT22;5931;48.832;9.072;2023-12-04T12:16:57;1.90;99.90
11748;DHT22;5931;48.832;9.072;2023-12-04T12:19:24;1.80;99.90
11748;DHT22;5931;48.832;9.072;2023-12-04T12:21:50;2.00;99.90
11748;DHT22;5931;48.832;9.072;2023-12-04T12:24:18;2.10;99.90
11748;DHT22;5931;48.832;9.072;2023-12-04T12:26:44;2.10;99.90
11748;DHT22;5931;48.832;9.072;2023-12-04T12:29:11;2.10;99.90
11748;DHT22;5931;48.832;9.072;2023-12-04T12:31:37;2.00;99.90
11748;DHT22;5931;48.832;9.072;2023-12-04T12:34:03;2.00;99.90
11748;DHT22;5931;48.832;9.072;2023-12-04T12:36:29;1.90;99.90
11748;DHT22;5931;48.832;9.072;2023-12-04T12:39:00;1.80;99.90
11748;DHT22;5931;48.832;9.072;2023-12-04T12:41:26;1.80;99.90
11748;DHT22;5931;48.832;9.072;2023-12-04T12:43:52;1.80;99.90
11748;DHT22;5931;48.832;9.072;2023-12-04T12:46:19;1.80;99.90
11748;DHT22;5931;48.832;9.072;2023-12-04T12:48:47;1.80;99.90
11748;DHT22;5931;48.832;9.072;2023-12-04T12:51:13;1.90;99.90
11748;DHT22;5931;48.832;9.072;2023-12-04T12:53:39;1.80;99.90
11748;DHT22;5931;48.832;9.072;2023-12-04T12:56:06;1.90;99.90
11748;DHT22;5931;48.832;9.072;2023-12-04T12:58:33;1.90;99.90
11748;DHT22;5931;48.832;9.072;2023-12-04T13:01:00;1.90;99.90
11748;DHT22;5931;48.832;9.072;2023-12-04T13:03:28;2.00;99.90
11748;DHT22;5931;48.832;9.072;2023-12-04T13:05:55;2.00;99.90
11748;DHT22;5931;48.832;9.072;2023-12-04T13:08:21;2.00;99.90
11748;DHT22;5931;48.832;9.072;2023-12-04T13:10:47;2.00;99.90
11748;DHT22;5931;48.832;9.072;2023-12-04T13:13:16;2.00;99.90
11748;DHT22;5931;48.832;9.072;2023-12-04T13:15:42;2.10;99.90
11748;DHT22;5931;48.832;9.072;2023-12-04T13:18:09;2.10;99.90
11748;DHT22;5931;48.832;9.072;2023-12-04T13:20:35;2.00;99.90
11748;DHT22;5931;48.832;9.072;2023-12-04T13:23:01;1.90;99.90
11748;DHT22;5931;48.832;9.072;2023-12-04T13:25:27;1.90;99.90
11748;DHT22;5931;48.832;9.072;2023-12-04T13:27:53;1.80;99.90
11748;DHT22;5931;48.832;9.072;2023-12-04T13:30:20;1.80;99.90
11748;DHT22;5931;48.832;9.072;2023-12-04T13:32:46;1.70;99.90
11748;DHT22;5931;48.832;9.072;2023-12-04T13:35:12;1.70;99.90
11748;DHT22;5931;48.832;9.072;2023-12-04T13:37:38;1.70;99.90
11748;DHT22;5931;48.832;9.072;2023-12-04T13:40:05;1.70;99.90
11748;DHT22;5931;48.832;9.072;2023-12-04T13:42:38;1.70;99.90
11748;DHT22;5931;48.832;9.072;2023-12-04T13:45:23;1.70;99.90
11748;DHT22;5931;48.832;9.072;2023-12-04T13:47:49;1.60;99.90
11748;DHT22;5931;48.832;9.072;2023-12-04T13:50:15;1.50;99.90
11748;DHT22;5931;48.832;9.072;2023-12-04T13:52:41;1.50;99.90
11748;DHT22;5931;48.832;9.072;2023-12-04T13:55:09;1.50;99.90
11748;DHT22;5931;48.832;9.072;2023-12-04T13:58:00;1.50;99.90
11748;DHT22;5931;48.832;9.072;2023-12-04T14:00:29;1.40;99.90
11748;DHT22;5931;48.832;9.072;2023-12-04T14:02:55;1.30;99.90
11748;DHT22;5931;48.832;9.072;2023-12-04T14:05:31;1.30;99.90
11748;DHT22;5931;48.832;9.072;2023-12-04T14:07:57;1.20;99.90
11748;DHT22;5931;48.832;9.072;2023-12-04T14:10:25;1.20;99.90
11748;DHT22;5931;48.832;9.072;2023-12-04T14:12:54;1.20;99.90
11748;DHT22;5931;48.832;9.072;2023-12-04T14:15:20;1.30;99.90
11748;DHT22;5931;48.832;9.072;2023-12-04T14:17:46;1.40;99.90
11748;DHT22;5931;48.832;9.072;2023-12-04T14:20:12;1.40;99.90
11748;DHT22;5931;48.832;9.072;2023-12-04T14:22:44;1.40;99.90
11748;DHT22;5931;48.832;9.072;2023-12-04T14:25:13;1.30;99.90
11748;DHT22;5931;48.832;9.072;2023-12-04T14:27:39;1.20;99.90
11748;DHT22;5931;48.832;9.072;2023-12-04T14:30:07;1.20;99.90
11748;DHT22;5931;48.832;9.072;2023-12-04T14:32:34;1.00;99.90
11748;DHT22;5931;48.832;9.072;2023-12-04T14:35:00;0.90;99.90
11748;DHT22;5931;48.832;9.072;2023-12-04T14:37:26;0.90;99.90
11748;DHT22;5931;48.832;9.072;2023-12-04T14:39:52;0.80;99.90
11748;DHT22;5931;48.832;9.072;2023-12-04T14:42:18;0.80;99.90
11748;DHT22;5931;48.832;9.072;2023-12-04T14:44:44;0.70;99.90
11748;DHT22;5931;48.832;9.072;2023-12-04T14:47:09;0.60;99.90
11748;DHT22;5931;48.832;9.072;2023-12-04T14:49:37;0.50;99.90
11748;DHT22;5931;48.832;9.072;2023-12-04T14:52:03;0.50;99.90
11748;DHT22;5931;48.832;9.072;2023-12-04T14:54:31;0.50;99.90
11748;DHT22;5931;48.832;9.072;2023-12-04T14:57:19;0.40;99.90
11748;DHT22;5931;48.832;9.072;2023-12-04T14:59:45;0.40;99.90
11748;DHT22;5931;48.832;9.072;2023-12-04T15:02:29;0.40;99.90
11748;DHT22;5931;48.832;9.072;2023-12-04T15:05:30;0.30;99.90
11748;DHT22;5931;48.832;9.072;2023-12-04T15:08:08;0.30;99.90
11748;DHT22;5931;48.832;9.072;2023-12-04T15:10:34;0.30;99.90
11748;DHT22;5931;48.832;9.072;2023-12-04T15:13:25;0.20;99.90
11748;DHT22;5931;48.832;9.072;2023-12-04T15:15:57;0.20;99.90
11748;DHT22;5931;48.832;9.072;2023-12-04T15:18:26;0.20;99.90
11748;DHT22;5931;48.832;9.072;2023-12-04T15:21:03;0.20;99.90
11748;DHT22;5931;48.832;9.072;2023-12-04T15:23:29;0.20;99.90
11748;DHT22;5931;48.832;9.072;2023-12-04T15:25:56;0.20;99.90
11748;DHT22;5931;48.832;9.072;2023-12-04T15:28:22;0.20;99.90
11748;DHT22;5931;48.832;9.072;2023-12-04T15:30:48;0.20;99.90
11748;DHT22;5931;48.832;9.072;2023-12-04T15:33:14;0.30;99.90
11748;DHT22;5931;48.832;9.072;2023-12-04T15:35:41;0.30;99.90
11748;DHT22;5931;48.832;9.072;2023-12-04T15:38:08;0.30;99.90
11748;DHT22;5931;48.832;9.072;2023-12-04T15:40:34;0.30;99.90
11748;DHT22;5931;48.832;9.072;2023-12-04T15:43:01;0.30;99.90
11748;DHT22;5931;48.832;9.072;2023-12-04T15:45:27;0.20;99.90
11748;DHT22;5931;48.832;9.072;2023-12-04T15:47:54;0.30;99.90
11748;DHT22;5931;48.832;9.072;2023-12-04T15:50:20;0.20;99.90
11748;DHT22;5931;48.832;9.072;2023-12-04T15:52:48;0.20;99.90
11748;DHT22;5931;48.832;9.072;2023-12-04T15:55:14;0.30;99.90
11748;DHT22;5931;48.832;9.072;2023-12-04T15:57:40;0.20;99.90
11748;DHT22;5931;48.832;9.072;2023-12-04T16:00:07;0.20;99.90